Time;durP1;ratioP1;P1;durP2;ratioP2;P2;SDS_P1;SDS_P2;PMS_P1;PMS_P2;Temp;Humidity;BMP_temperature;BMP_pressure;BME280_temperature;BME280_humidity;BME280_pressure;Samples;Min_cycle;Max_cycle;Signal;HPM_P1;HPM_P2
2023/03/26 00:00:58;;;;;;;10.73;1.98;;;7.80;99.90;;;;;;5065577;28;20155;-46
2023/03/26 00:03:25;;;;;;;12.68;2.13;;;7.50;99.90;;;;;;5065136;28;20057;-46
2023/03/26 00:06:11;;;;;;;10.52;1.75;;;7.20;99.90;;;;;;5066259;28;20075;-45
2023/03/26 00:08:39;;;;;;;10.68;1.58;;;7.00;99.90;;;;;;5065465;28;20041;-47
2023/03/26 00:11:06;;;;;;;16.55;2.47;;;7.30;99.90;;;;;;5065581;28;20084;-46
2023/03/26 00:13:33;;;;;;;14.43;2.58;;;7.00;99.90;;;;;;5065534;28;20585;-46
2023/03/26 00:16:00;;;;;;;19.17;3.28;;;7.10;99.90;;;;;;5065941;28;20054;-47
2023/03/26 00:18:30;;;;;;;13.80;1.75;;;7.10;99.90;;;;;;5065249;28;20470;-46
2023/03/26 00:21:00;;;;;;;11.38;2.30;;;6.60;99.90;;;;;;5064967;28;20036;-45
2023/03/26 00:23:27;;;;;;;11.00;2.00;;;6.90;99.90;;;;;;5065310;28;20048;-47
2023/03/26 00:25:54;;;;;;;14.73;1.75;;;7.70;99.90;;;;;;5064688;28;20410;-47
2023/03/26 00:28:21;;;;;;;12.75;2.03;;;6.80;99.90;;;;;;5065068;28;20086;-45
2023/03/26 00:30:49;;;;;;;12.23;2.38;;;7.20;99.90;;;;;;5065647;28;20407;-45
2023/03/26 00:33:18;;;;;;;12.85;3.45;;;6.80;99.90;;;;;;5066001;28;20572;-46
2023/03/26 00:35:45;;;;;;;17.58;2.75;;;7.80;99.90;;;;;;5065629;28;20039;-46
2023/03/26 00:38:14;;;;;;;13.52;2.10;;;6.80;99.90;;;;;;5065384;28;20041;-46
2023/03/26 00:40:46;;;;;;;18.35;2.28;;;6.60;99.90;;;;;;5065528;28;20048;-46
2023/03/26 00:43:18;;;;;;;;;;;7.60;99.90;;;;;;5066609;28;20123;-49
2023/03/26 00:45:46;;;;;;;10.00;1.77;;;7.40;99.90;;;;;;5065493;28;19920;-48
2023/03/26 00:48:12;;;;;;;19.08;2.70;;;7.80;99.90;;;;;;5066663;28;20043;-47
2023/03/26 00:50:38;;;;;;;17.10;2.15;;;7.50;99.90;;;;;;5069803;28;20093;-46
2023/03/26 00:53:04;;;;;;;17.50;3.10;;;7.50;99.90;;;;;;5070199;28;20474;-46
2023/03/26 00:55:30;;;;;;;17.73;2.95;;;7.00;99.90;;;;;;5070203;28;20603;-47
2023/03/26 00:57:56;;;;;;;12.27;2.05;;;7.90;99.90;;;;;;5070223;28;20040;-45
2023/03/26 01:00:30;;;;;;;16.77;1.95;;;6.90;99.90;;;;;;5069832;28;20049;-46
2023/03/26 01:02:57;;;;;;;11.98;2.00;;;7.00;99.90;;;;;;5051075;28;20095;-46
2023/03/26 01:05:35;;;;;;;14.55;2.38;;;7.00;99.90;;;;;;5069458;28;20554;-46
2023/03/26 01:08:13;;;;;;;13.25;2.22;;;7.10;99.90;;;;;;5068950;28;20093;-46
2023/03/26 01:10:41;;;;;;;12.98;1.98;;;7.50;99.90;;;;;;5069377;28;20052;-45
2023/03/26 01:13:08;;;;;;;13.93;1.92;;;7.10;99.90;;;;;;5069029;28;20500;-45
2023/03/26 01:15:37;;;;;;;13.63;1.60;;;7.50;99.90;;;;;;5051450;28;20482;-45
2023/03/26 01:18:04;;;;;;;8.50;1.92;;;8.30;99.90;;;;;;5068529;28;20045;-46
2023/03/26 01:20:37;;;;;;;15.07;2.35;;;6.70;99.90;;;;;;5069164;28;20127;-47
2023/03/26 01:23:06;;;;;;;11.07;2.08;;;7.00;99.90;;;;;;5069126;28;20076;-46
2023/03/26 01:25:39;;;;;;;15.63;1.75;;;7.80;99.90;;;;;;5069053;28;20492;-46
2023/03/26 01:28:08;;;;;;;9.35;1.30;;;7.00;99.90;;;;;;5068993;28;20032;-47
2023/03/26 01:30:57;;;;;;;14.35;1.58;;;7.00;99.90;;;;;;5069037;28;20091;-47
2023/03/26 01:33:47;;;;;;;11.73;1.70;;;7.00;99.90;;;;;;5068514;28;20047;-48
2023/03/26 01:36:28;;;;;;;12.50;1.38;;;6.60;99.90;;;;;;5068808;28;20182;-48
2023/03/26 01:38:58;;;;;;;15.15;1.35;;;6.60;99.90;;;;;;5068777;28;20048;-47
2023/03/26 01:42:05;;;;;;;13.60;3.72;;;7.00;99.90;;;;;;5069076;28;20040;-45
2023/03/26 01:44:55;;;;;;;11.82;1.75;;;6.60;99.90;;;;;;5064376;28;20672;-46
2023/03/26 01:47:22;;;;;;;11.90;2.08;;;6.60;99.90;;;;;;5068666;28;20047;-45
2023/03/26 01:49:47;;;;;;;16.23;3.72;;;7.40;99.90;;;;;;5068520;28;20083;-46
2023/03/26 01:52:21;;;;;;;14.73;1.55;;;7.30;99.90;;;;;;5068755;28;20068;-45
2023/03/26 01:54:47;;;;;;;11.40;2.22;;;7.40;99.90;;;;;;5068337;28;20083;-47
2023/03/26 01:57:37;;;;;;;17.23;1.58;;;8.00;99.90;;;;;;5068660;28;20044;-46
2023/03/26 02:00:31;;;;;;;12.02;1.80;;;6.60;99.90;;;;;;5050000;28;20052;-46
2023/03/26 02:03:16;;;;;;;14.70;1.90;;;6.60;99.90;;;;;;5068373;28;20206;-45
2023/03/26 02:06:24;;;;;;;15.68;3.00;;;6.60;99.90;;;;;;5068720;28;20048;-45
2023/03/26 02:09:01;;;;;;;13.25;2.47;;;6.60;99.90;;;;;;5068306;28;20049;-47
2023/03/26 02:11:27;;;;;;;13.10;2.58;;;6.90;99.90;;;;;;5067704;28;20040;-45
2023/03/26 02:13:53;;;;;;;13.80;1.98;;;7.30;99.90;;;;;;5068169;28;20056;-46
2023/03/26 02:16:19;;;;;;;12.65;2.05;;;6.90;99.90;;;;;;5068309;28;20047;-46
2023/03/26 02:18:50;;;;;;;14.48;2.00;;;6.60;99.90;;;;;;5067928;28;20098;-46
2023/03/26 02:21:21;;;;;;;11.60;1.92;;;7.30;99.90;;;;;;5068437;28;20441;-46
2023/03/26 02:24:01;;;;;;;7.85;1.80;;;6.90;99.90;;;;;;5068159;28;20723;-46
2023/03/26 02:26:29;;;;;;;9.73;1.98;;;6.60;99.90;;;;;;5068287;28;20641;-47
2023/03/26 02:28:57;;;;;;;14.48;2.25;;;6.80;99.90;;;;;;5067635;28;20486;-45
2023/03/26 02:31:25;;;;;;;15.98;1.77;;;7.40;99.90;;;;;;5067906;28;20041;-47
2023/03/26 02:33:51;;;;;;;18.70;2.17;;;7.20;99.90;;;;;;5067703;28;20040;-45
2023/03/26 02:36:20;;;;;;;13.75;2.30;;;6.70;99.90;;;;;;5068443;28;20513;-46
2023/03/26 02:38:46;;;;;;;16.50;3.55;;;6.90;99.90;;;;;;5068198;28;20127;-45
2023/03/26 02:41:12;;;;;;;18.58;2.53;;;7.70;99.90;;;;;;5067404;28;20040;-45
2023/03/26 02:43:38;;;;;;;11.38;1.98;;;6.90;99.90;;;;;;5049752;28;20041;-47
2023/03/26 02:46:04;;;;;;;14.52;2.70;;;6.90;99.90;;;;;;5067193;28;20044;-47
2023/03/26 02:48:30;;;;;;;9.55;1.67;;;6.50;99.90;;;;;;5067452;28;20120;-49
2023/03/26 02:50:56;;;;;;;13.75;1.95;;;7.50;99.90;;;;;;5067065;28;20094;-46
2023/03/26 02:53:22;;;;;;;12.63;2.50;;;6.70;99.90;;;;;;5068107;28;20040;-45
2023/03/26 02:55:48;;;;;;;6.95;1.25;;;7.60;99.90;;;;;;5067841;28;20083;-45
2023/03/26 02:58:16;;;;;;;10.25;1.63;;;6.60;99.90;;;;;;5067575;28;20032;-45
2023/03/26 03:00:43;;;;;;;11.70;1.70;;;7.60;99.90;;;;;;5067531;28;20048;-45
2023/03/26 03:03:09;;;;;;;13.73;2.58;;;6.70;99.90;;;;;;5067394;28;20056;-45
2023/03/26 03:05:36;;;;;;;9.68;1.63;;;6.80;99.90;;;;;;5067976;28;20372;-46
2023/03/26 03:08:04;;;;;;;16.08;1.85;;;6.30;99.90;;;;;;5067209;28;20052;-46
2023/03/26 03:10:34;;;;;;;13.77;1.40;;;6.00;99.90;;;;;;5066755;28;20850;-47
2023/03/26 03:13:00;;;;;;;8.82;1.42;;;6.50;99.90;;;;;;5067679;28;20043;-46
2023/03/26 03:15:26;;;;;;;12.43;2.25;;;7.00;99.90;;;;;;5068012;28;20032;-45
2023/03/26 03:17:51;;;;;;;10.00;2.22;;;5.80;99.90;;;;;;5067141;28;20196;-46
2023/03/26 03:20:17;;;;;;;10.80;1.80;;;6.40;99.90;;;;;;5067388;28;20279;-46
2023/03/26 03:22:43;;;;;;;13.95;1.65;;;5.70;99.90;;;;;;5067489;28;20084;-46
2023/03/26 03:25:13;;;;;;;16.42;1.77;;;5.90;99.90;;;;;;5067017;28;20807;-46
2023/03/26 03:27:40;;;;;;;13.73;2.13;;;6.10;99.90;;;;;;5067241;28;20049;-46
2023/03/26 03:30:07;;;;;;;11.73;1.65;;;6.00;99.90;;;;;;5066938;28;20120;-46
2023/03/26 03:32:33;;;;;;;12.43;2.53;;;5.60;99.90;;;;;;5066745;28;20045;-45
2023/03/26 03:34:58;;;;;;;12.63;2.20;;;5.70;99.90;;;;;;5066318;28;20264;-46
2023/03/26 03:37:25;;;;;;;17.25;2.45;;;6.30;99.90;;;;;;5066274;28;20047;-46
2023/03/26 03:39:51;;;;;;;17.10;2.38;;;5.50;99.90;;;;;;5066682;28;20048;-46
2023/03/26 03:42:17;;;;;;;9.35;1.65;;;6.40;99.90;;;;;;5066370;28;20052;-45
2023/03/26 03:44:43;;;;;;;11.65;1.85;;;6.20;99.90;;;;;;5066433;28;20055;-45
2023/03/26 03:47:12;;;;;;;12.80;3.13;;;6.50;99.90;;;;;;5066758;28;20105;-48
2023/03/26 03:49:38;;;;;;;12.88;1.90;;;6.00;99.90;;;;;;5066739;28;20502;-45
2023/03/26 03:52:04;;;;;;;16.92;2.30;;;5.80;99.90;;;;;;5066719;28;20043;-43
2023/03/26 03:54:30;;;;;;;10.63;1.83;;;5.90;99.90;;;;;;5066659;28;20565;-46
2023/03/26 03:56:56;;;;;;;18.75;1.83;;;6.80;99.90;;;;;;5066209;28;20051;-45
2023/03/26 03:59:22;;;;;;;16.08;2.30;;;5.90;99.90;;;;;;5066112;28;20044;-47
2023/03/26 04:01:49;;;;;;;13.82;1.88;;;5.60;99.90;;;;;;5065975;28;20039;-45
2023/03/26 04:04:15;;;;;;;16.55;2.75;;;6.00;99.90;;;;;;5065804;28;20163;-47
2023/03/26 04:06:41;;;;;;;11.52;2.00;;;6.00;99.90;;;;;;5066363;28;20044;-45
2023/03/26 04:09:09;;;;;;;19.38;2.58;;;6.40;99.90;;;;;;5047926;28;20122;-47
2023/03/26 04:11:35;;;;;;;10.25;2.20;;;5.80;99.90;;;;;;5065290;28;20111;-45
2023/03/26 04:14:01;;;;;;;11.18;1.67;;;5.90;99.90;;;;;;5066346;28;20076;-46
2023/03/26 04:16:26;;;;;;;11.20;1.70;;;6.20;99.90;;;;;;5066352;28;20037;-46
2023/03/26 04:18:52;;;;;;;15.27;1.92;;;5.90;99.90;;;;;;5066504;28;20501;-45
2023/03/26 04:21:18;;;;;;;15.85;2.38;;;5.80;99.90;;;;;;5066042;28;20128;-45
2023/03/26 04:23:44;;;;;;;15.85;2.47;;;5.90;99.90;;;;;;5065834;28;20115;-45
2023/03/26 04:26:15;;;;;;;18.25;2.53;;;5.10;99.90;;;;;;5065681;28;20458;-45
2023/03/26 04:28:45;;;;;;;17.90;2.60;;;4.80;99.90;;;;;;5066179;28;20044;-47
2023/03/26 04:31:15;;;;;;;10.02;1.90;;;4.90;99.90;;;;;;5065917;28;20048;-44
2023/03/26 04:33:49;;;;;;;14.98;2.28;;;4.80;99.90;;;;;;5066472;28;20071;-45
2023/03/26 04:36:16;;;;;;;12.85;2.75;;;4.40;99.90;;;;;;5065577;28;20039;-46
2023/03/26 04:38:45;;;;;;;11.77;1.27;;;4.30;99.90;;;;;;5047598;28;20048;-45
2023/03/26 04:41:12;;;;;;;10.23;1.40;;;4.40;99.90;;;;;;5064824;28;20048;-44
2023/03/26 04:43:41;;;;;;;11.20;1.63;;;4.30;99.90;;;;;;5065532;28;20048;-46
2023/03/26 04:46:09;;;;;;;13.30;2.28;;;4.20;99.90;;;;;;5065359;28;20044;-45
2023/03/26 04:48:37;;;;;;;16.73;2.00;;;4.20;99.90;;;;;;5065845;28;20048;-46
2023/03/26 04:51:08;;;;;;;14.05;1.70;;;4.30;99.90;;;;;;5065195;28;20565;-45
2023/03/26 04:53:34;;;;;;;12.73;1.88;;;4.20;99.90;;;;;;5066439;28;20041;-44
2023/03/26 04:56:10;;;;;;;13.20;1.80;;;5.60;99.90;;;;;;5065682;28;20124;-45
2023/03/26 04:58:36;;;;;;;19.05;2.22;;;4.50;99.90;;;;;;5065952;28;20044;-45
2023/03/26 05:01:02;;;;;;;13.80;1.92;;;4.30;99.90;;;;;;5065963;28;20161;-46
2023/03/26 05:03:31;;;;;;;19.48;2.25;;;5.10;99.90;;;;;;5065307;28;20212;-45
2023/03/26 05:06:01;;;;;;;15.60;2.10;;;4.20;99.90;;;;;;5064963;28;20163;-48
2023/03/26 05:08:27;;;;;;;11.05;1.98;;;4.10;99.90;;;;;;5065087;28;20156;-45
2023/03/26 05:10:56;;;;;;;11.57;1.92;;;4.10;99.90;;;;;;5065191;28;20055;-45
2023/03/26 05:13:23;;;;;;;13.15;2.30;;;4.00;99.90;;;;;;5065270;28;20116;-45
2023/03/26 05:15:49;;;;;;;14.50;2.17;;;3.90;99.90;;;;;;5065902;28;20374;-47
2023/03/26 05:18:14;;;;;;;13.18;2.88;;;4.00;99.90;;;;;;5065269;28;20041;-45
2023/03/26 05:20:42;;;;;;;22.40;2.22;;;4.00;99.90;;;;;;5065413;28;20043;-46
2023/03/26 05:23:09;;;;;;;15.40;2.35;;;4.60;99.90;;;;;;5064950;28;20406;-46
2023/03/26 05:25:35;;;;;;;16.08;2.75;;;4.20;99.90;;;;;;5065472;28;20481;-45
2023/03/26 05:28:01;;;;;;;12.90;2.90;;;4.20;99.90;;;;;;5065223;28;20048;-45
2023/03/26 05:30:27;;;;;;;14.60;2.30;;;4.20;99.90;;;;;;5064830;28;20153;-45
2023/03/26 05:32:53;;;;;;;18.75;3.03;;;4.70;99.90;;;;;;5064544;28;20483;-45
2023/03/26 05:35:19;;;;;;;13.68;2.15;;;5.10;99.90;;;;;;5067864;28;20049;-46
2023/03/26 05:37:46;;;;;;;19.35;3.13;;;4.30;99.90;;;;;;5069008;28;20041;-45
2023/03/26 05:40:15;;;;;;;12.60;2.03;;;3.80;99.90;;;;;;5068708;28;20090;-45
2023/03/26 05:42:42;;;;;;;18.65;2.50;;;4.40;99.90;;;;;;5068666;28;20123;-46
2023/03/26 05:45:10;;;;;;;17.52;2.97;;;5.00;99.90;;;;;;5069614;28;20049;-45
2023/03/26 05:47:36;;;;;;;11.35;2.45;;;4.40;99.90;;;;;;5069055;28;20050;-47
2023/03/26 05:50:02;;;;;;;19.02;2.75;;;4.40;99.90;;;;;;5069086;28;20051;-46
2023/03/26 05:52:28;;;;;;;19.00;2.53;;;4.50;99.90;;;;;;5069061;28;20868;-45
2023/03/26 05:54:54;;;;;;;15.43;2.55;;;4.50;99.90;;;;;;5068300;28;20040;-45
2023/03/26 05:57:21;;;;;;;26.40;3.42;;;4.60;99.90;;;;;;5050037;28;20044;-46
2023/03/26 05:59:47;;;;;;;16.42;2.83;;;4.70;99.90;;;;;;5068562;28;20051;-46
2023/03/26 06:02:13;;;;;;;11.75;2.40;;;4.70;99.90;;;;;;5068411;28;20044;-44
2023/03/26 06:04:39;;;;;;;13.32;3.25;;;5.10;99.90;;;;;;5067859;28;20060;-47
2023/03/26 06:07:11;;;;;;;16.75;2.22;;;5.10;99.90;;;;;;5067876;28;20044;-47
2023/03/26 06:09:38;;;;;;;12.27;2.35;;;4.90;99.90;;;;;;5067652;28;20083;-47
2023/03/26 06:12:09;;;;;;;16.02;3.55;;;5.50;99.90;;;;;;5067506;28;20055;-47
2023/03/26 06:14:35;;;;;;;12.38;2.05;;;5.10;99.90;;;;;;5067652;28;20737;-47
2023/03/26 06:17:01;;;;;;;16.80;3.28;;;;;;;;;;5067816;28;20032;-46
2023/03/26 06:19:27;;;;;;;12.30;2.92;;;;;;;;;;5067456;28;20040;-45
2023/03/26 06:21:53;;;;;;;23.63;5.57;;;5.30;99.90;;;;;;5068222;28;20127;-45
2023/03/26 06:24:19;;;;;;;15.82;2.75;;;5.80;99.90;;;;;;5067941;28;20075;-46
2023/03/26 06:26:46;;;;;;;13.98;2.85;;;5.60;99.90;;;;;;5067537;28;20432;-45
2023/03/26 06:29:15;;;;;;;17.92;3.08;;;5.70;99.90;;;;;;5067094;28;20059;-45
2023/03/26 06:31:41;;;;;;;15.10;2.60;;;;;;;;;;5066994;28;20052;-45
2023/03/26 06:34:07;;;;;;;15.35;2.72;;;5.60;99.90;;;;;;5067586;28;20398;-46
2023/03/26 06:36:33;;;;;;;13.90;2.75;;;6.10;99.90;;;;;;5067431;28;20040;-46
2023/03/26 06:38:58;;;;;;;15.25;2.58;;;6.00;99.90;;;;;;5067971;28;20054;-45
2023/03/26 06:41:24;;;;;;;15.75;2.45;;;;;;;;;;5066851;28;20123;-47
2023/03/26 06:43:50;;;;;;;15.02;2.47;;;;;;;;;;5066605;28;20080;-46
2023/03/26 06:46:16;;;;;;;13.70;3.60;;;6.50;99.90;;;;;;5065746;28;20040;-46
2023/03/26 06:48:42;;;;;;;22.05;2.90;;;6.40;99.90;;;;;;5067064;28;20047;-45
2023/03/26 06:51:09;;;;;;;17.90;2.38;;;6.60;99.90;;;;;;5067382;28;20105;-45
2023/03/26 06:53:35;;;;;;;10.38;2.00;;;7.10;99.90;;;;;;5067311;28;20098;-46
2023/03/26 06:56:02;;;;;;;20.95;2.88;;;7.20;99.90;;;;;;5067614;28;20052;-45
2023/03/26 06:58:28;;;;;;;15.25;1.98;;;;;;;;;;5067137;28;20055;-45
2023/03/26 07:00:55;;;;;;;12.88;2.20;;;7.20;99.90;;;;;;5067644;28;20044;-46
2023/03/26 07:03:21;;;;;;;12.77;2.60;;;;;;;;;;5066859;28;20147;-46
2023/03/26 07:05:46;;;;;;;11.63;1.90;;;7.10;99.90;;;;;;5067134;28;20040;-45
2023/03/26 07:08:12;;;;;;;14.45;1.83;;;7.20;99.90;;;;;;5066636;28;20063;-45
2023/03/26 07:10:38;;;;;;;18.35;2.30;;;7.80;99.90;;;;;;5067059;28;20049;-45
2023/03/26 07:13:04;;;;;;;17.40;3.85;;;7.80;99.90;;;;;;5066504;28;20071;-45
2023/03/26 07:15:29;;;;;;;19.08;1.95;;;7.50;99.90;;;;;;5066414;28;20089;-46
2023/03/26 07:17:55;;;;;;;23.55;1.92;;;;;;;;;;5066199;28;20037;-46
2023/03/26 07:20:21;;;;;;;22.73;2.30;;;7.40;99.90;;;;;;5048319;28;20087;-47
2023/03/26 07:22:48;;;;;;;16.65;1.63;;;;;;;;;;5066103;28;20120;-47
2023/03/26 07:25:14;;;;;;;20.27;3.00;;;7.60;99.90;;;;;;5066510;28;20044;-45
2023/03/26 07:28:16;;;;;;;17.88;2.05;;;7.70;99.90;;;;;;5066302;28;20453;-45
2023/03/26 07:31:07;;;;;;;14.80;1.30;;;7.70;99.90;;;;;;5052176;28;20032;-46
2023/03/26 07:34:02;;;;;;;10.63;1.73;;;7.90;99.90;;;;;;5066044;28;20573;-45
2023/03/26 07:36:50;;;;;;;15.60;3.08;;;8.30;99.90;;;;;;5066616;28;20430;-48
2023/03/26 07:39:42;;;;;;;14.52;2.22;;;8.60;99.90;;;;;;5066690;28;20044;-46
2023/03/26 07:42:24;;;;;;;9.35;1.63;;;9.00;99.90;;;;;;5066623;28;20040;-46
2023/03/26 07:45:19;;;;;;;14.25;1.35;;;9.10;99.90;;;;;;5066161;28;20101;-45
2023/03/26 07:47:48;;;;;;;17.50;1.60;;;9.10;99.90;;;;;;5066851;28;20036;-45
2023/03/26 07:50:16;;;;;;;14.00;1.40;;;9.10;99.90;;;;;;5066688;28;20052;-45
2023/03/26 07:52:42;;;;;;;12.05;1.55;;;9.60;99.90;;;;;;5066200;28;20120;-45
2023/03/26 07:55:12;;;;;;;8.88;1.00;;;9.50;99.90;;;;;;5066615;28;20103;-45
2023/03/26 07:58:20;;;;;;;11.80;1.70;;;9.60;99.90;;;;;;5066056;28;20040;-46
2023/03/26 08:01:01;;;;;;;13.23;1.15;;;9.80;99.90;;;;;;5065561;28;20052;-46
2023/03/26 08:03:54;;;;;;;9.82;1.50;;;9.80;99.90;;;;;;5066092;28;20099;-47
2023/03/26 08:06:36;;;;;;;14.32;3.15;;;9.60;99.90;;;;;;5066512;28;20586;-46
2023/03/26 08:09:14;;;;;;;18.00;2.17;;;9.70;99.90;;;;;;5066630;28;20052;-48
2023/03/26 08:12:05;;;;;;;10.98;0.90;;;10.00;99.90;;;;;;5065836;28;20048;-47
2023/03/26 08:14:36;;;;;;;14.10;2.17;;;10.00;99.90;;;;;;5065211;28;20066;-46
2023/03/26 08:17:41;;;;;;;11.63;0.93;;;10.50;99.90;;;;;;5066273;28;20037;-46
2023/03/26 08:20:36;;;;;;;17.73;2.53;;;10.50;99.90;;;;;;5066318;28;20052;-46
2023/03/26 08:23:15;;;;;;;7.75;1.20;;;10.30;99.90;;;;;;5065814;28;20053;-46
2023/03/26 08:26:01;;;;;;;11.70;1.63;;;10.30;99.90;;;;;;5065102;28;20502;-46
2023/03/26 08:28:39;;;;;;;9.07;1.27;;;10.50;99.90;;;;;;5065590;28;20836;-46
2023/03/26 08:31:08;;;;;;;11.15;1.10;;;10.70;99.90;;;;;;5066122;28;20033;-45
2023/03/26 08:33:35;;;;;;;13.65;1.17;;;10.90;99.90;;;;;;5066072;28;20123;-47
2023/03/26 08:36:01;;;;;;;14.63;2.17;;;11.20;99.90;;;;;;5065614;28;20068;-47
2023/03/26 08:38:26;;;;;;;10.27;1.40;;;11.20;99.90;;;;;;5065867;28;20137;-46
2023/03/26 08:41:15;;;;;;;13.13;1.63;;;11.30;99.90;;;;;;5066193;28;20047;-46
2023/03/26 08:44:26;;;;;;;10.45;1.75;;;11.30;99.90;;;;;;5065498;28;20053;-48
2023/03/26 08:47:10;;;;;;;13.23;1.15;;;11.10;99.90;;;;;;5034354;28;20057;-45
2023/03/26 08:49:56;;;;;;;13.70;1.83;;;10.90;99.90;;;;;;5065874;28;20076;-47
2023/03/26 08:52:53;;;;;;;9.65;1.05;;;10.90;99.90;;;;;;5066254;28;20154;-45
2023/03/26 08:55:50;;;;;;;11.88;1.55;;;10.80;99.90;;;;;;5065409;28;20107;-46
2023/03/26 08:58:38;;;;;;;15.90;1.73;;;10.70;99.90;;;;;;5065583;28;20036;-47
2023/03/26 09:01:21;;;;;;;13.63;1.80;;;10.70;99.90;;;;;;5065864;28;20072;-46
2023/03/26 09:03:53;;;;;;;9.93;1.20;;;10.80;99.90;;;;;;5065183;28;20056;-47
2023/03/26 09:06:31;;;;;;;12.18;1.85;;;10.70;99.90;;;;;;5065840;28;20063;-45
2023/03/26 09:09:18;;;;;;;14.48;1.52;;;10.80;99.90;;;;;;5066347;28;20113;-48
2023/03/26 09:12:15;;;;;;;17.58;1.60;;;10.90;99.90;;;;;;5069436;28;20137;-48
2023/03/26 09:15:07;;;;;;;9.45;1.15;;;11.00;99.90;;;;;;5030726;28;20044;-47
2023/03/26 09:17:51;;;;;;;6.53;1.00;;;11.10;99.90;;;;;;5027612;28;20055;-48
2023/03/26 09:20:29;;;;;;;10.48;1.05;;;11.30;99.90;;;;;;5069928;28;20323;-46
2023/03/26 09:23:14;;;;;;;10.05;1.05;;;11.90;99.90;;;;;;5068935;28;20105;-46
2023/03/26 09:26:04;;;;;;;12.75;1.35;;;12.00;99.90;;;;;;5069074;28;20495;-44
2023/03/26 09:28:32;;;;;;;11.73;1.67;;;11.70;99.90;;;;;;5069091;28;20739;-47
2023/03/26 09:31:01;;;;;;;15.50;2.08;;;11.90;99.90;;;;;;5069130;28;20117;-45
2023/03/26 09:33:30;;;;;;;18.17;1.30;;;11.50;99.90;;;;;;5069046;28;20075;-48
2023/03/26 09:36:07;;;;;;;12.30;2.42;;;11.50;99.90;;;;;;5068405;28;20502;-48
2023/03/26 09:38:53;;;;;;;16.33;1.52;;;11.50;99.90;;;;;;5069461;28;20127;-46
2023/03/26 09:41:47;;;;;;;18.08;2.25;;;11.40;99.90;;;;;;5069283;28;20097;-49
2023/03/26 09:44:27;;;;;;;16.50;2.53;;;11.50;99.90;;;;;;5069523;28;20048;-54
2023/03/26 09:47:21;;;;;;;13.60;1.52;;;11.60;99.90;;;;;;5060828;28;20045;-43
2023/03/26 09:49:55;;;;;;;14.20;1.80;;;11.70;99.90;;;;;;5047744;28;20151;-55
2023/03/26 09:52:42;;;;;;;17.67;1.80;;;11.70;99.90;;;;;;5069308;28;20355;-52
2023/03/26 09:55:21;;;;;;;10.75;1.42;;;11.70;99.90;;;;;;5089299;28;20147;-52
2023/03/26 09:58:01;;;;;;;10.05;1.50;;;11.50;99.90;;;;;;5089134;28;20470;-47
2023/03/26 10:00:43;;;;;;;6.32;1.00;;;11.60;99.90;;;;;;5089263;28;20090;-46
2023/03/26 10:03:24;;;;;;;11.18;1.40;;;11.60;99.90;;;;;;5086165;28;20071;-45
2023/03/26 10:06:05;;;;;;;17.10;1.40;;;11.60;99.90;;;;;;5088145;28;20048;-49
2023/03/26 10:08:46;;;;;;;9.55;1.38;;;11.60;99.90;;;;;;5087628;28;20080;-50
2023/03/26 10:11:33;;;;;;;10.52;1.15;;;11.70;99.90;;;;;;5087862;28;20059;-45
2023/03/26 10:14:14;;;;;;;15.07;1.73;;;11.60;99.90;;;;;;5086297;28;20127;-47
2023/03/26 10:17:00;;;;;;;12.70;1.37;;;11.60;99.90;;;;;;5088214;28;20036;-45
2023/03/26 10:19:49;;;;;;;12.02;1.38;;;11.50;99.90;;;;;;5088600;28;20048;-46
2023/03/26 10:22:51;;;;;;;7.97;0.82;;;11.40;99.90;;;;;;5088700;28;20160;-45
2023/03/26 10:25:17;;;;;;;;;;;11.20;99.90;;;;;;5089002;28;20101;-44
2023/03/26 10:27:49;;;;;;;7.47;1.13;;;11.00;99.90;;;;;;5088655;28;20459;-43
2023/03/26 10:30:35;;;;;;;11.70;1.40;;;10.90;99.90;;;;;;5088934;28;20076;-44
2023/03/26 10:33:15;;;;;;;13.10;1.23;;;10.70;99.90;;;;;;5072700;28;20664;-45
2023/03/26 10:35:55;;;;;;;10.98;1.40;;;10.60;99.90;;;;;;5084634;28;20078;-45
2023/03/26 10:38:42;;;;;;;17.25;1.77;;;10.70;99.90;;;;;;5084584;28;20131;-45
2023/03/26 10:41:15;;;;;;;8.57;1.05;;;10.80;99.90;;;;;;5085405;28;20123;-45
2023/03/26 10:43:50;;;;;;;15.10;1.98;;;10.90;99.90;;;;;;5085584;28;20059;-45
2023/03/26 10:46:46;;;;;;;18.75;3.40;;;10.80;99.90;;;;;;5084831;28;20116;-44
2023/03/26 10:49:39;;;;;;;11.10;1.23;;;11.20;99.90;;;;;;5085144;28;20052;-44
2023/03/26 10:52:11;;;;;;;10.55;1.70;;;10.60;99.90;;;;;;5085226;28;20044;-43
2023/03/26 10:55:08;;;;;;;15.90;1.97;;;10.70;99.90;;;;;;5085277;28;20040;-44
2023/03/26 10:57:49;;;;;;;9.18;1.33;;;10.70;99.90;;;;;;5088474;28;20266;-46
2023/03/26 11:00:27;;;;;;;12.25;1.42;;;11.30;99.90;;;;;;5087505;28;20504;-45
2023/03/26 11:03:10;;;;;;;8.85;1.25;;;11.00;99.90;;;;;;5087724;28;20060;-46
2023/03/26 11:05:53;;;;;;;12.82;1.42;;;11.30;99.90;;;;;;5087708;28;20055;-44
2023/03/26 11:08:38;;;;;;;9.95;1.25;;;11.00;99.90;;;;;;5086979;28;20128;-44
2023/03/26 11:11:24;;;;;;;10.63;2.22;;;10.90;98.70;;;;;;5087536;28;20044;-45
2023/03/26 11:14:19;;;;;;;17.50;1.73;;;10.90;99.90;;;;;;5087979;28;20040;-45
2023/03/26 11:16:56;;;;;;;10.88;1.90;;;11.00;99.90;;;;;;5087835;28;20044;-45
2023/03/26 11:19:50;;;;;;;13.18;1.63;;;10.90;99.90;;;;;;5087560;28;20076;-44
2023/03/26 11:22:35;;;;;;;10.85;1.75;;;11.00;99.60;;;;;;5069790;28;20052;-44
2023/03/26 11:25:38;;;;;;;10.15;1.45;;;11.10;99.90;;;;;;5087573;28;20090;-47
2023/03/26 11:28:41;;;;;;;8.82;1.40;;;11.20;97.20;;;;;;5087832;28;20036;-44
2023/03/26 11:31:19;;;;;;;9.13;1.13;;;11.00;99.00;;;;;;5087237;28;20101;-49
2023/03/26 11:33:50;;;;;;;13.73;3.30;;;11.20;99.80;;;;;;5086348;28;20039;-45
2023/03/26 11:36:21;;;;;;;10.93;2.30;;;11.80;99.90;;;;;;5086693;28;20054;-44
2023/03/26 11:38:49;;;;;;;10.82;1.00;;;11.30;99.30;;;;;;5086644;28;20119;-45
2023/03/26 11:41:22;;;;;;;9.90;1.30;;;11.40;98.60;;;;;;5086787;28;20055;-44
2023/03/26 11:43:59;;;;;;;8.52;0.90;;;11.90;98.30;;;;;;5087219;28;20181;-44
2023/03/26 11:46:26;;;;;;;10.30;1.45;;;11.50;97.10;;;;;;5086245;28;20499;-46
2023/03/26 11:48:58;;;;;;;8.48;1.50;;;11.60;97.60;;;;;;5086626;28;20824;-44
2023/03/26 11:51:27;;;;;;;;;;;11.90;97.80;;;;;;5087148;28;20044;-44
2023/03/26 11:53:53;;;;;;;9.95;1.45;;;11.80;97.10;;;;;;5087203;28;20434;-44
2023/03/26 11:56:43;;;;;;;8.98;1.13;;;12.30;98.20;;;;;;5087919;28;20032;-45
2023/03/26 11:59:19;;;;;;;9.52;1.30;;;11.70;95.30;;;;;;5087117;28;20097;-47
2023/03/26 12:02:11;;;;;;;13.07;1.00;;;11.50;99.90;;;;;;5087383;28;20043;-44
2023/03/26 12:04:42;;;;;;;14.95;1.70;;;12.40;97.80;;;;;;5075292;28;20055;-45
2023/03/26 12:07:21;;;;;;;12.55;1.65;;;11.90;97.40;;;;;;5087322;28;20130;-45
2023/03/26 12:09:57;;;;;;;10.77;1.05;;;12.00;96.50;;;;;;5086732;28;20051;-46
2023/03/26 12:12:30;;;;;;;10.07;1.13;;;12.00;95.80;;;;;;5087054;28;20490;-44
2023/03/26 12:14:57;;;;;;;12.45;1.30;;;11.90;95.90;;;;;;5087345;28;20044;-45
2023/03/26 12:17:39;;;;;;;9.25;1.23;;;12.10;95.00;;;;;;5087131;28;20098;-48
2023/03/26 12:20:26;;;;;;;10.32;1.25;;;11.80;94.70;;;;;;5087129;28;20063;-44
2023/03/26 12:22:57;;;;;;;11.52;1.00;;;11.60;91.70;;;;;;5086833;28;20048;-44
2023/03/26 12:25:25;;;;;;;10.90;1.08;;;11.50;94.40;;;;;;5086517;28;20145;-44
2023/03/26 12:28:12;;;;;;;12.75;1.65;;;11.30;94.20;;;;;;5086551;28;20126;-45
2023/03/26 12:30:40;;;;;;;9.90;1.45;;;11.30;94.40;;;;;;5069484;28;20134;-45
2023/03/26 12:33:16;;;;;;;9.88;1.30;;;11.70;95.00;;;;;;5087290;28;20032;-46
2023/03/26 12:35:42;;;;;;;10.35;1.02;;;11.40;94.10;;;;;;5086833;28;20494;-44
2023/03/26 12:38:32;;;;;;;8.68;0.82;;;12.10;95.00;;;;;;5086526;28;20089;-44
2023/03/26 12:41:16;;;;;;;8.70;0.50;;;11.50;94.40;;;;;;5086718;28;20133;-45
2023/03/26 12:43:48;;;;;;;7.13;0.80;;;12.10;94.30;;;;;;5086804;28;20051;-46
2023/03/26 12:46:23;;;;;;;7.38;1.02;;;11.30;93.40;;;;;;5090792;28;20048;-45
2023/03/26 12:48:53;;;;;;;6.10;0.88;;;11.30;92.70;;;;;;5091124;28;20661;-46
2023/03/26 12:51:44;;;;;;;8.65;0.88;;;11.30;92.50;;;;;;5072221;28;20839;-44
2023/03/26 12:54:32;;;;;;;9.55;1.45;;;11.40;92.30;;;;;;5090922;28;20398;-46
2023/03/26 12:57:22;;;;;;;10.38;0.80;;;11.40;91.70;;;;;;5089906;28;20044;-46
2023/03/26 13:00:18;;;;;;;12.75;1.95;;;11.40;91.70;;;;;;5090486;28;20059;-44
2023/03/26 13:02:57;;;;;;;12.88;1.08;;;11.40;92.00;;;;;;5090245;28;20048;-45
2023/03/26 13:05:38;;;;;;;9.32;0.90;;;11.40;92.20;;;;;;5090219;28;20056;-45
2023/03/26 13:08:19;;;;;;;11.07;1.42;;;11.30;92.00;;;;;;5090736;28;20044;-47
2023/03/26 13:11:06;;;;;;;8.50;0.70;;;11.20;91.50;;;;;;5090190;28;20048;-44
2023/03/26 13:13:55;;;;;;;8.82;1.05;;;11.10;92.10;;;;;;5090340;28;20039;-46
2023/03/26 13:16:30;;;;;;;12.50;1.15;;;10.80;93.10;;;;;;5090498;28;20382;-45
2023/03/26 13:19:03;;;;;;;12.88;1.35;;;11.20;92.80;;;;;;5090229;28;20048;-44
2023/03/26 13:21:38;;;;;;;8.95;1.13;;;11.30;93.10;;;;;;5090049;28;20070;-44
2023/03/26 13:24:28;;;;;;;9.25;1.30;;;11.90;93.20;;;;;;5090458;28;20048;-45